Muir Woods, California
Current Conditions -  °F | °C
As of 5:15 AM on Thursday 18 Dec 2014 (Local Time) from KDVO Reporting Station
Overcast Overcast  
Wind Chill: 50°   Ceiling: 1200
Heat Index: 50°   Visibility: 10mi
Dew Point: 50°   Wind: 3mph
Humidity: 100%   Direction: 140°SE
Pressure: 30.11"   Gusts: NA
Location:  37.8835°N, 122.554°W
Report Text: KDVO 181315Z AUTO 14003KT 10SM FEW005 OVC012 10/10 A3011 RMK AO2
Loading
Personal Weather Stations






























Interactive Weather Map New forecast layout! Learn more

10-Day Weather Forecast

Advertisements
Track Severe Weather on mobile